Time;durP1;ratioP1;P1;durP2;ratioP2;P2;SDS_P1;SDS_P2;PMS_P1;PMS_P2;Temp;Humidity;BMP_temperature;BMP_pressure;BME280_temperature;BME280_humidity;BME280_pressure;Samples;Min_cycle;Max_cycle;Signal;HPM_P1;HPM_P2
2021/05/03 00:02:04;;;;;;;13.13;11.70;;;9.20;91.70;;;;;;5057138;28;20033;-84
2021/05/03 00:04:30;;;;;;;11.75;10.52;;;9.20;91.90;;;;;;5056773;28;20029;-82
2021/05/03 00:06:56;;;;;;;14.63;13.10;;;9.10;91.90;;;;;;5050866;28;20022;-81
2021/05/03 00:09:22;;;;;;;15.85;12.00;;;9.00;92.30;;;;;;5056297;28;20110;-83
2021/05/03 00:11:48;;;;;;;15.15;12.63;;;9.10;92.50;;;;;;5056276;28;20025;-83
2021/05/03 00:14:14;;;;;;;17.30;12.52;;;9.10;92.70;;;;;;5056178;28;20025;-83
2021/05/03 00:16:40;;;;;;;15.18;12.85;;;9.10;92.80;;;;;;5056014;28;20064;-83
2021/05/03 00:19:06;;;;;;;14.13;12.65;;;9.10;92.90;;;;;;5055701;28;20028;-82
2021/05/03 00:21:32;;;;;;;15.05;13.02;;;9.10;93.10;;;;;;5037648;28;20151;-82
2021/05/03 00:23:58;;;;;;;16.50;12.63;;;9.10;93.30;;;;;;5055825;28;20505;-83
2021/05/03 00:26:24;;;;;;;14.25;12.43;;;9.10;93.30;;;;;;5055608;28;20029;-83
2021/05/03 00:28:50;;;;;;;14.85;12.80;;;9.00;93.50;;;;;;5055613;28;20045;-82
2021/05/03 00:31:16;;;;;;;16.50;13.75;;;9.00;93.60;;;;;;5055700;28;20024;-82
2021/05/03 00:33:42;;;;;;;15.55;13.27;;;9.10;93.50;;;;;;5055364;28;20036;-84
2021/05/03 00:36:08;;;;;;;16.02;13.30;;;9.10;93.50;;;;;;5037238;28;20083;-82
2021/05/03 00:38:35;;;;;;;15.10;12.70;;;9.10;93.60;;;;;;5055542;28;20505;-81
2021/05/03 00:41:02;;;;;;;15.40;13.20;;;9.00;93.60;;;;;;5037593;28;20100;-82
2021/05/03 00:43:28;;;;;;;16.45;14.65;;;9.10;93.90;;;;;;5041694;28;20041;-81
2021/05/03 00:45:54;;;;;;;19.05;16.05;;;9.10;93.90;;;;;;5055528;28;20067;-83
2021/05/03 00:48:20;;;;;;;17.88;13.68;;;9.10;93.80;;;;;;5055827;28;20108;-81
2021/05/03 00:50:47;;;;;;;15.43;13.93;;;9.10;94.00;;;;;;5055776;28;20021;-83
2021/05/03 00:53:13;;;;;;;16.13;14.30;;;9.10;94.00;;;;;;5055676;28;20021;-81
2021/05/03 00:55:39;;;;;;;16.05;14.20;;;9.10;94.20;;;;;;5055388;28;20049;-83
2021/05/03 00:58:06;;;;;;;16.23;14.50;;;9.10;94.20;;;;;;5054908;28;20017;-82
2021/05/03 01:00:32;;;;;;;17.60;14.27;;;9.10;94.40;;;;;;5037321;28;20029;-81
2021/05/03 01:03:00;;;;;;;16.35;14.38;;;9.10;94.40;;;;;;5055386;28;20032;-82
2021/05/03 01:05:29;;;;;;;17.23;14.82;;;9.10;94.40;;;;;;5054889;28;20028;-82
2021/05/03 01:07:56;;;;;;;16.23;14.50;;;9.10;94.60;;;;;;5055153;28;20025;-81
2021/05/03 01:10:22;;;;;;;14.50;12.80;;;9.00;94.70;;;;;;5062011;28;20041;-81
2021/05/03 01:12:48;;;;;;;17.17;14.35;;;9.00;94.80;;;;;;5072848;28;20048;-82
2021/05/03 01:15:15;;;;;;;15.43;13.70;;;9.00;95.00;;;;;;5045828;28;20045;-80
2021/05/03 01:17:42;;;;;;;15.45;13.82;;;9.00;95.10;;;;;;5054928;28;20047;-80
2021/05/03 01:20:15;;;;;;;15.05;13.50;;;9.00;95.20;;;;;;5054479;28;20024;-81
2021/05/03 01:22:41;;;;;;;15.10;13.40;;;9.00;95.30;;;;;;5051218;28;20037;-80
2021/05/03 01:25:09;;;;;;;16.88;14.23;;;9.00;95.30;;;;;;5054463;28;20048;-81
2021/05/03 01:27:36;;;;;;;16.05;14.43;;;9.00;95.40;;;;;;5053839;28;20017;-82
2021/05/03 01:30:07;;;;;;;15.82;13.02;;;9.10;95.40;;;;;;5054839;28;20033;-81
2021/05/03 01:32:33;;;;;;;14.75;13.07;;;9.20;95.80;;;;;;5037077;28;20449;-83
2021/05/03 01:34:59;;;;;;;14.98;11.13;;;9.10;95.40;;;;;;5059297;28;20025;-83
2021/05/03 01:37:25;;;;;;;13.95;12.55;;;9.10;95.40;;;;;;5058902;28;20494;-82
2021/05/03 01:39:51;;;;;;;13.18;11.95;;;9.10;95.60;;;;;;5055431;28;20024;-84
2021/05/03 01:42:17;;;;;;;13.02;11.52;;;9.00;95.70;;;;;;5055539;28;20033;-83
2021/05/03 01:44:44;;;;;;;14.07;12.40;;;9.00;95.80;;;;;;5057054;28;20036;-85
2021/05/03 01:47:11;;;;;;;14.27;11.73;;;9.00;95.90;;;;;;5055679;28;20100;-84
2021/05/03 01:49:39;;;;;;;13.60;12.20;;;9.00;95.90;;;;;;5055695;28;20060;-84
2021/05/03 01:52:06;;;;;;;13.45;12.15;;;9.10;95.90;;;;;;5037290;28;20111;-81
2021/05/03 01:54:33;;;;;;;14.57;12.93;;;9.10;95.80;;;;;;5055871;28;20028;-80
2021/05/03 01:56:59;;;;;;;12.23;10.87;;;9.10;95.80;;;;;;5055136;28;20097;-79
2021/05/03 01:59:31;;;;;;;15.55;12.35;;;9.20;95.80;;;;;;5053869;28;20546;-81
2021/05/03 02:01:57;;;;;;;13.43;11.70;;;9.20;95.70;;;;;;5052490;28;20033;-81
2021/05/03 02:04:23;;;;;;;12.85;11.45;;;9.20;95.60;;;;;;5032850;28;20116;-78
2021/05/03 02:06:48;;;;;;;12.80;11.50;;;9.20;95.60;;;;;;5051588;28;20060;-81
2021/05/03 02:09:14;;;;;;;12.32;10.90;;;9.30;95.60;;;;;;5054047;28;20028;-79
2021/05/03 02:11:40;;;;;;;13.73;12.35;;;9.20;95.50;;;;;;5041495;28;20014;-80
2021/05/03 02:14:08;;;;;;;12.70;11.40;;;9.20;95.50;;;;;;5054301;28;20049;-81
2021/05/03 02:16:34;;;;;;;14.63;11.57;;;9.30;95.60;;;;;;5053676;28;20021;-81
2021/05/03 02:19:00;;;;;;;12.27;11.07;;;9.30;95.50;;;;;;5053693;28;20025;-82
2021/05/03 02:21:26;;;;;;;12.68;11.38;;;9.30;95.50;;;;;;5059077;28;20498;-81
2021/05/03 02:23:51;;;;;;;13.98;11.77;;;9.40;95.50;;;;;;5036651;28;20112;-82
2021/05/03 02:26:17;;;;;;;12.40;11.05;;;9.40;95.40;;;;;;5055186;28;20096;-83
2021/05/03 02:28:43;;;;;;;12.35;11.15;;;9.40;95.30;;;;;;5035212;28;20059;-82
2021/05/03 02:31:09;;;;;;;13.73;12.30;;;9.50;95.20;;;;;;5053070;28;20025;-82
2021/05/03 02:33:35;;;;;;;13.10;11.80;;;9.50;95.20;;;;;;5053118;28;20100;-83
2021/05/03 02:36:02;;;;;;;12.45;10.52;;;9.50;95.20;;;;;;5052771;28;20021;-81
2021/05/03 02:38:30;;;;;;;12.40;11.18;;;9.50;95.10;;;;;;5053389;28;20431;-82
2021/05/03 02:40:56;;;;;;;14.45;13.02;;;9.50;95.00;;;;;;5053362;28;20029;-81
2021/05/03 02:43:22;;;;;;;13.43;12.02;;;9.60;94.90;;;;;;5052932;28;20029;-83
2021/05/03 02:45:49;;;;;;;12.60;10.77;;;9.60;94.80;;;;;;5055365;28;20032;-83
2021/05/03 02:48:16;;;;;;;12.20;10.40;;;9.60;94.80;;;;;;5054189;28;20027;-81
2021/05/03 02:50:42;;;;;;;13.25;11.80;;;9.70;94.80;;;;;;5055626;28;20057;-82
2021/05/03 02:53:08;;;;;;;14.38;12.55;;;9.60;94.70;;;;;;5055183;28;20021;-84
2021/05/03 02:55:33;;;;;;;14.23;12.50;;;9.70;94.80;;;;;;5052993;28;20086;-83
2021/05/03 02:57:59;;;;;;;12.85;11.65;;;9.70;94.70;;;;;;5052753;28;20538;-83
2021/05/03 03:00:30;;;;;;;14.50;13.00;;;9.80;94.70;;;;;;5053654;28;20029;-81
2021/05/03 03:02:56;;;;;;;14.15;12.75;;;9.80;94.60;;;;;;5045807;28;20036;-84
2021/05/03 03:05:22;;;;;;;15.73;14.13;;;9.80;94.60;;;;;;5051976;28;20013;-83
2021/05/03 03:07:50;;;;;;;15.88;13.45;;;9.80;94.70;;;;;;5068171;28;20100;-82
2021/05/03 03:10:20;;;;;;;15.30;13.73;;;9.80;94.90;;;;;;5073708;28;20105;-82
2021/05/03 03:12:46;;;;;;;16.25;14.57;;;9.70;94.70;;;;;;5064013;28;20033;-83
2021/05/03 03:15:16;;;;;;;16.65;15.02;;;9.70;94.80;;;;;;5052534;28;20021;-83
2021/05/03 03:17:48;;;;;;;16.55;14.77;;;9.70;94.90;;;;;;5052544;28;20497;-84
2021/05/03 03:20:14;;;;;;;18.67;16.70;;;9.70;95.10;;;;;;5052484;28;20104;-83
2021/05/03 03:22:40;;;;;;;17.35;15.65;;;9.70;95.20;;;;;;5050610;28;20036;-82
2021/05/03 03:25:07;;;;;;;18.30;16.42;;;9.70;95.30;;;;;;5053197;28;20024;-82
2021/05/03 03:27:33;;;;;;;17.48;15.82;;;9.80;95.20;;;;;;5052286;28;20032;-84
2021/05/03 03:29:59;;;;;;;21.55;17.05;;;9.90;95.10;;;;;;5052780;28;20021;-82
2021/05/03 03:32:25;;;;;;;16.80;14.60;;;9.90;95.10;;;;;;5052475;28;20364;-82
2021/05/03 03:34:51;;;;;;;18.27;16.38;;;9.90;95.00;;;;;;5052745;28;20018;-82
2021/05/03 03:37:17;;;;;;;19.30;17.40;;;9.90;94.90;;;;;;5052881;28;20029;-83
2021/05/03 03:39:44;;;;;;;19.48;17.58;;;9.90;94.90;;;;;;5052154;28;20027;-83
2021/05/03 03:42:10;;;;;;;18.73;16.85;;;9.90;94.90;;;;;;5034341;28;20063;-82
2021/05/03 03:44:36;;;;;;;19.05;17.10;;;10.00;95.30;;;;;;5053444;28;20025;-81
2021/05/03 03:47:02;;;;;;;19.45;17.52;;;10.00;94.90;;;;;;5056674;28;20024;-82
2021/05/03 03:49:28;;;;;;;21.33;19.20;;;10.10;94.90;;;;;;5035019;28;20394;-83
2021/05/03 03:51:54;;;;;;;21.20;19.00;;;10.00;94.90;;;;;;5052886;28;20017;-80
2021/05/03 03:54:20;;;;;;;19.45;17.52;;;10.00;94.90;;;;;;5052672;28;20498;-81
2021/05/03 03:56:46;;;;;;;18.38;16.48;;;10.00;95.10;;;;;;5051917;28;20029;-82
2021/05/03 03:59:14;;;;;;;20.40;18.35;;;9.90;95.20;;;;;;5052103;28;20028;-82
2021/05/03 04:01:41;;;;;;;21.92;19.75;;;9.90;95.40;;;;;;5045387;28;20065;-86
2021/05/03 04:04:16;;;;;;;20.85;18.70;;;9.80;95.40;;;;;;5034262;28;20021;-81
2021/05/03 04:06:50;;;;;;;22.25;19.65;;;9.80;95.60;;;;;;5051847;28;20044;-84
2021/05/03 04:09:39;;;;;;;20.45;17.75;;;9.80;95.70;;;;;;5052303;28;20025;-84
2021/05/03 04:12:37;;;;;;;23.92;20.63;;;9.80;95.70;;;;;;5048169;28;20018;-81
2021/05/03 04:26:00;;;;;;;22.48;20.25;;;9.80;95.90;;;;;;5054218;28;20087;-82
2021/05/03 04:28:26;;;;;;;23.38;20.98;;;9.80;96.10;;;;;;5055657;28;20053;-85
2021/05/03 04:30:52;;;;;;;22.25;20.02;;;9.90;96.10;;;;;;5056545;28;20027;-84
2021/05/03 04:33:18;;;;;;;23.88;21.40;;;9.90;96.10;;;;;;5037474;28;20029;-82
2021/05/03 04:35:44;;;;;;;23.40;21.08;;;9.90;96.00;;;;;;5055417;28;20045;-84
2021/05/03 04:38:09;;;;;;;24.23;21.63;;;9.90;96.00;;;;;;5055084;28;20067;-83
2021/05/03 04:40:35;;;;;;;26.90;20.98;;;9.90;96.00;;;;;;5055309;28;20028;-84
2021/05/03 04:43:01;;;;;;;24.20;21.75;;;10.00;96.00;;;;;;5054973;28;20037;-82
2021/05/03 04:45:27;;;;;;;24.35;21.90;;;10.00;96.00;;;;;;5055507;28;20105;-85
2021/05/03 04:47:52;;;;;;;23.77;21.27;;;10.00;96.10;;;;;;5055110;28;20025;-82
2021/05/03 04:50:18;;;;;;;26.08;23.30;;;10.00;96.00;;;;;;5056383;28;20021;-82
2021/05/03 04:52:44;;;;;;;26.77;22.95;;;10.10;95.90;;;;;;5056464;28;20048;-83
2021/05/03 04:55:11;;;;;;;25.05;22.52;;;10.10;95.90;;;;;;5056103;28;20063;-82
2021/05/03 04:57:36;;;;;;;23.92;21.48;;;10.10;96.00;;;;;;5057552;28;20037;-82
2021/05/03 05:00:04;;;;;;;24.50;21.77;;;10.20;96.00;;;;;;5057074;28;20018;-81
2021/05/03 05:02:30;;;;;;;24.77;22.33;;;10.20;96.00;;;;;;5055634;28;20445;-82
2021/05/03 05:04:57;;;;;;;24.15;21.75;;;10.30;95.90;;;;;;5041025;28;20029;-80
2021/05/03 05:07:26;;;;;;;24.08;21.58;;;10.30;95.80;;;;;;5064310;28;20112;-80
2021/05/03 05:09:51;;;;;;;20.67;18.58;;;10.30;95.80;;;;;;5060779;28;20056;-83
2021/05/03 05:12:17;;;;;;;22.58;20.23;;;10.20;95.80;;;;;;5054864;28;20060;-83
2021/05/03 05:14:43;;;;;;;22.98;20.67;;;10.20;95.90;;;;;;5037731;28;20028;-85
2021/05/03 05:17:10;;;;;;;22.10;19.90;;;10.30;96.00;;;;;;5037390;28;20032;-83
2021/05/03 05:19:36;;;;;;;21.85;19.65;;;10.30;95.90;;;;;;5056215;28;20032;-82
2021/05/03 05:22:02;;;;;;;21.58;19.45;;;10.40;95.80;;;;;;5054384;28;20037;-83
2021/05/03 05:24:27;;;;;;;23.00;20.70;;;10.30;95.60;;;;;;5054318;28;20021;-84
2021/05/03 05:26:54;;;;;;;21.40;19.15;;;10.30;95.90;;;;;;5054637;28;20033;-81
2021/05/03 05:29:24;;;;;;;23.30;20.90;;;10.20;96.00;;;;;;5054572;28;20052;-84
2021/05/03 05:31:53;;;;;;;24.42;20.58;;;10.20;96.20;;;;;;5037231;28;20021;-83
2021/05/03 05:34:19;;;;;;;23.95;21.42;;;10.20;96.30;;;;;;5036405;28;20119;-82
2021/05/03 05:36:45;;;;;;;23.00;20.70;;;10.30;96.30;;;;;;5036144;28;20108;-82
2021/05/03 05:39:11;;;;;;;25.65;23.00;;;10.30;96.40;;;;;;5054287;28;20032;-83
2021/05/03 05:41:39;;;;;;;22.80;20.05;;;10.30;96.50;;;;;;5055400;28;20524;-82
2021/05/03 05:44:06;;;;;;;;;;;10.30;96.50;;;;;;5055131;28;20024;-83
2021/05/03 05:46:33;;;;;;;;;;;10.30;96.20;;;;;;5055552;28;19905;-82
2021/05/03 05:48:58;;;;;;;20.58;18.48;;;10.30;96.30;;;;;;5055149;28;20381;-83
2021/05/03 05:51:24;;;;;;;21.10;18.83;;;10.30;96.60;;;;;;5055229;28;20033;-84
2021/05/03 05:53:50;;;;;;;23.23;20.80;;;10.40;96.70;;;;;;5056565;28;20071;-82
2021/05/03 05:56:16;;;;;;;21.40;19.30;;;10.40;96.80;;;;;;5055310;28;20033;-81
2021/05/03 05:58:42;;;;;;;22.63;20.30;;;10.50;96.80;;;;;;5034994;28;20021;-81
2021/05/03 06:01:08;;;;;;;20.92;18.83;;;10.50;96.70;;;;;;5054997;28;20054;-83
2021/05/03 06:03:33;;;;;;;21.83;19.52;;;10.60;96.90;;;;;;5054428;28;20530;-81
2021/05/03 06:05:59;;;;;;;22.27;19.50;;;10.50;96.80;;;;;;5054145;28;20067;-83
2021/05/03 06:08:26;;;;;;;21.17;18.20;;;10.50;97.10;;;;;;5053846;28;20033;-81
2021/05/03 06:10:52;;;;;;;22.58;20.00;;;10.50;97.20;;;;;;5053346;28;20017;-81
2021/05/03 06:13:18;;;;;;;22.77;19.55;;;10.50;97.30;;;;;;5053552;28;20074;-80
2021/05/03 06:15:44;;;;;;;21.08;18.98;;;10.50;97.30;;;;;;5056843;28;20024;-84
2021/05/03 06:18:10;;;;;;;18.05;16.23;;;10.60;97.20;;;;;;5053767;28;20469;-82
2021/05/03 06:20:36;;;;;;;18.75;16.02;;;10.40;97.20;;;;;;5035495;28;20471;-84
2021/05/03 06:23:07;;;;;;;19.98;17.08;;;10.20;97.70;;;;;;5035531;28;20121;-83
2021/05/03 06:25:33;;;;;;;21.92;18.65;;;10.20;98.30;;;;;;5053381;28;20028;-81
2021/05/03 06:28:00;;;;;;;21.10;18.92;;;10.30;98.60;;;;;;5034967;28;20037;-80
2021/05/03 06:30:27;;;;;;;20.90;18.70;;;10.40;98.50;;;;;;5052948;28;20025;-81
2021/05/03 06:32:53;;;;;;;18.87;17.00;;;10.40;98.30;;;;;;5050107;28;20029;-82
2021/05/03 06:35:22;;;;;;;25.02;19.98;;;10.50;98.40;;;;;;5052944;28;20451;-83
2021/05/03 06:37:48;;;;;;;;;;;10.60;98.60;;;;;;5053232;28;20451;-83
2021/05/03 06:40:15;;;;;;;19.83;17.70;;;10.60;98.20;;;;;;5035120;28;19908;-85
2021/05/03 06:42:41;;;;;;;22.23;19.92;;;10.60;98.50;;;;;;5052541;28;20130;-82
2021/05/03 06:45:08;;;;;;;20.73;17.73;;;10.70;98.70;;;;;;5052662;28;20021;-81
2021/05/03 06:47:34;;;;;;;20.42;18.42;;;10.80;98.50;;;;;;5052229;28;20156;-81
2021/05/03 06:50:00;;;;;;;18.75;16.50;;;10.90;98.80;;;;;;5034588;28;20501;-81
2021/05/03 06:52:26;;;;;;;23.40;20.92;;;10.90;98.60;;;;;;5049428;28;20521;-81
2021/05/03 06:54:55;;;;;;;20.35;17.73;;;11.00;98.70;;;;;;5052920;28;20017;-80
2021/05/03 06:57:21;;;;;;;19.67;17.75;;;11.00;98.70;;;;;;5053391;28;20090;-81
2021/05/03 06:59:47;;;;;;;23.50;18.27;;;11.10;98.50;;;;;;5026325;28;20033;-79
2021/05/03 07:02:13;;;;;;;22.20;18.70;;;11.20;98.50;;;;;;5054785;28;20052;-84
2021/05/03 07:04:39;;;;;;;22.50;18.08;;;11.30;98.40;;;;;;5059953;28;20025;-79
2021/05/03 07:07:05;;;;;;;19.35;17.30;;;11.20;98.40;;;;;;5060801;28;20024;-84
2021/05/03 07:09:32;;;;;;;21.38;19.17;;;11.20;98.30;;;;;;5059681;28;20100;-80
2021/05/03 07:11:59;;;;;;;23.40;20.10;;;11.20;98.60;;;;;;5052307;28;20028;-79
2021/05/03 07:14:28;;;;;;;21.05;18.63;;;11.30;98.60;;;;;;5049627;28;20036;-80
2021/05/03 07:16:54;;;;;;;24.48;21.33;;;11.40;98.30;;;;;;5052511;28;20500;-80
2021/05/03 07:19:20;;;;;;;25.08;20.10;;;11.40;98.50;;;;;;5052940;28;20100;-83
2021/05/03 07:21:46;;;;;;;24.38;20.50;;;11.60;98.50;;;;;;5034688;28;20031;-81
2021/05/03 07:24:12;;;;;;;23.20;20.50;;;11.70;98.30;;;;;;5052270;28;20032;-80
2021/05/03 07:26:40;;;;;;;26.02;22.02;;;11.80;98.20;;;;;;5052300;28;20478;-83
2021/05/03 07:29:05;;;;;;;25.60;22.48;;;11.80;98.50;;;;;;5052160;28;20103;-82
2021/05/03 07:31:32;;;;;;;25.38;22.65;;;12.00;98.20;;;;;;5052628;28;20429;-79
2021/05/03 07:33:59;;;;;;;25.30;21.50;;;12.00;97.80;;;;;;5034698;28;20075;-82
2021/05/03 07:36:25;;;;;;;28.58;23.63;;;12.10;97.80;;;;;;5052560;28;20027;-81
2021/05/03 07:38:52;;;;;;;25.48;20.77;;;12.10;97.80;;;;;;5053241;28;20100;-82
2021/05/03 07:41:18;;;;;;;25.35;21.35;;;12.10;97.80;;;;;;5052703;28;20033;-81
2021/05/03 07:43:44;;;;;;;25.73;22.77;;;12.10;97.80;;;;;;5035762;28;20037;-79
2021/05/03 07:46:10;;;;;;;26.20;23.38;;;12.20;97.70;;;;;;5052633;28;20647;-82
2021/05/03 07:48:36;;;;;;;27.02;21.48;;;12.20;97.80;;;;;;5050590;28;20057;-83
2021/05/03 07:51:03;;;;;;;24.65;22.05;;;12.30;97.70;;;;;;5052974;28;20021;-77
2021/05/03 07:53:29;;;;;;;27.33;23.20;;;12.30;97.50;;;;;;5052755;28;20110;-79
2021/05/03 07:55:54;;;;;;;25.15;22.55;;;12.30;97.40;;;;;;5045275;28;20041;-79
2021/05/03 07:58:20;;;;;;;26.00;21.70;;;12.50;97.60;;;;;;5048628;28;20071;-79
2021/05/03 08:00:49;;;;;;;26.58;22.98;;;12.50;97.30;;;;;;5035660;28;20448;-78
2021/05/03 08:03:16;;;;;;;31.15;22.65;;;12.40;97.40;;;;;;5056349;28;20486;-79
2021/05/03 08:05:46;;;;;;;25.05;22.13;;;12.40;97.50;;;;;;5056452;28;20109;-79
2021/05/03 08:08:11;;;;;;;26.92;23.45;;;12.50;97.50;;;;;;5057713;28;20071;-86
2021/05/03 08:10:37;;;;;;;26.17;23.08;;;12.50;97.70;;;;;;5055706;28;20036;-87
2021/05/03 08:13:03;;;;;;;26.15;23.45;;;12.60;97.60;;;;;;5057948;28;20017;-81
2021/05/03 08:15:29;;;;;;;31.88;23.02;;;12.60;97.80;;;;;;5055753;28;20043;-82
2021/05/03 08:17:55;;;;;;;28.40;22.33;;;12.60;97.80;;;;;;5038450;28;20029;-80
2021/05/03 08:20:21;;;;;;;31.45;25.48;;;12.60;97.90;;;;;;5055825;28;20017;-80
2021/05/03 08:22:47;;;;;;;31.33;26.00;;;12.60;98.10;;;;;;5041597;28;20490;-77
2021/05/03 08:25:14;;;;;;;26.70;20.27;;;12.70;98.30;;;;;;5055714;28;20025;-79
2021/05/03 08:27:39;;;;;;;30.95;24.95;;;12.80;98.10;;;;;;5054305;28;20025;-80
2021/05/03 08:30:07;;;;;;;26.63;23.85;;;12.80;98.10;;;;;;5055588;28;20024;-78
2021/05/03 08:32:33;;;;;;;27.38;23.75;;;12.90;98.30;;;;;;5055464;28;20078;-76
2021/05/03 08:34:59;;;;;;;24.90;22.35;;;12.90;98.20;;;;;;5037459;28;20478;-77
2021/05/03 08:37:25;;;;;;;27.80;24.77;;;12.90;98.10;;;;;;5055413;28;20033;-78
2021/05/03 08:39:51;;;;;;;33.88;25.25;;;13.00;98.30;;;;;;5050017;28;20071;-80
2021/05/03 08:42:17;;;;;;;30.52;25.42;;;13.10;98.20;;;;;;5054102;28;20064;-79
2021/05/03 08:44:51;;;;;;;31.17;25.92;;;13.10;98.20;;;;;;5037467;28;20029;-76
2021/05/03 08:47:18;;;;;;;30.27;26.27;;;13.20;98.20;;;;;;5055125;28;20056;-80
2021/05/03 08:49:56;;;;;;;27.00;22.88;;;13.20;98.10;;;;;;5037021;28;20053;-77
2021/05/03 08:54:49;;;;;;;28.65;25.70;;;13.40;98.30;;;;;;5042564;28;20036;-78
2021/05/03 08:57:15;;;;;;;25.13;21.95;;;13.50;98.10;;;;;;5036769;28;20128;-78
2021/05/03 08:59:42;;;;;;;31.02;22.65;;;13.50;97.80;;;;;;5054883;28;20025;-77
2021/05/03 09:02:13;;;;;;;33.90;26.67;;;13.50;97.80;;;;;;5054648;28;20498;-77
2021/05/03 09:04:39;;;;;;;28.95;22.35;;;13.50;97.90;;;;;;5050429;28;20048;-77
2021/05/03 09:07:05;;;;;;;24.75;21.52;;;13.60;97.80;;;;;;5056599;28;20017;-80
2021/05/03 09:09:39;;;;;;;25.83;22.58;;;13.80;97.70;;;;;;5064799;28;20041;-80
2021/05/03 09:12:12;;;;;;;25.65;22.95;;;13.90;97.40;;;;;;5062090;28;20135;-78
2021/05/03 09:14:58;;;;;;;29.30;24.05;;;14.00;97.20;;;;;;5037334;28;20025;-77
2021/05/03 09:17:35;;;;;;;28.40;25.52;;;14.20;97.00;;;;;;5054385;28;20032;-81
2021/05/03 09:20:05;;;;;;;26.63;23.83;;;14.20;96.90;;;;;;5054796;28;20017;-81
2021/05/03 09:22:52;;;;;;;26.98;23.13;;;14.30;96.70;;;;;;5054120;28;20039;-82
2021/05/03 09:25:35;;;;;;;24.23;21.63;;;14.30;96.50;;;;;;5036912;28;20032;-80
2021/05/03 09:28:16;;;;;;;28.13;24.60;;;14.40;96.50;;;;;;5036428;28;20065;-81
2021/05/03 09:30:50;;;;;;;27.08;21.77;;;14.50;96.50;;;;;;5054676;28;20021;-84
2021/05/03 09:33:24;;;;;;;24.65;21.25;;;14.60;95.90;;;;;;5054368;28;20394;-81
2021/05/03 09:35:56;;;;;;;27.20;22.90;;;14.60;95.80;;;;;;5054554;28;20025;-81
2021/05/03 09:38:42;;;;;;;26.20;23.38;;;14.60;95.90;;;;;;5051194;28;20041;-87
2021/05/03 09:41:17;;;;;;;29.65;22.92;;;14.60;95.90;;;;;;5055006;28;20112;-82
2021/05/03 09:43:44;;;;;;;28.35;23.80;;;14.70;96.00;;;;;;5036732;28;20067;-83
2021/05/03 09:46:35;;;;;;;25.05;22.58;;;14.70;95.90;;;;;;5053750;28;20017;-80
2021/05/03 09:49:16;;;;;;;30.08;24.40;;;14.70;95.80;;;;;;5053767;28;20108;-80
2021/05/03 09:51:44;;;;;;;24.50;22.00;;;14.70;95.90;;;;;;5053699;28;20024;-81
2021/05/03 09:54:21;;;;;;;28.40;23.05;;;14.80;95.80;;;;;;5035705;28;20035;-82
2021/05/03 09:56:52;;;;;;;24.05;21.50;;;15.00;95.70;;;;;;5054432;28;20069;-81
2021/05/03 09:59:29;;;;;;;32.10;23.45;;;15.10;95.30;;;;;;5054130;28;20136;-81
2021/05/03 10:02:01;;;;;;;24.30;21.77;;;15.30;95.20;;;;;;5054530;28;20118;-82
2021/05/03 10:04:28;;;;;;;23.33;20.63;;;15.40;94.80;;;;;;5053981;28;20049;-85
2021/05/03 10:06:54;;;;;;;28.83;21.10;;;15.50;94.60;;;;;;5053867;28;20031;-82
2021/05/03 10:09:20;;;;;;;26.48;22.00;;;15.60;94.30;;;;;;5053918;28;20615;-83
2021/05/03 10:11:47;;;;;;;22.17;18.50;;;15.70;94.50;;;;;;5053313;28;20021;-84
2021/05/03 10:14:14;;;;;;;22.60;19.33;;;15.80;93.90;;;;;;5053622;28;20016;-85
2021/05/03 10:16:41;;;;;;;24.23;20.30;;;15.90;93.70;;;;;;5053657;28;20033;-83
2021/05/03 10:19:07;;;;;;;25.60;19.25;;;15.80;93.50;;;;;;5053495;28;20017;-80
2021/05/03 10:21:34;;;;;;;21.15;17.23;;;15.90;93.30;;;;;;5053126;28;20029;-79
2021/05/03 10:24:01;;;;;;;21.50;19.17;;;15.90;93.40;;;;;;5034798;28;20024;-80
2021/05/03 10:26:28;;;;;;;25.08;20.27;;;15.80;93.40;;;;;;5053050;28;20025;-80
2021/05/03 10:28:56;;;;;;;22.52;19.05;;;15.80;93.40;;;;;;5035304;28;20048;-79
2021/05/03 10:31:23;;;;;;;19.98;17.88;;;15.90;93.40;;;;;;5034837;28;20106;-81
2021/05/03 10:33:50;;;;;;;20.42;18.38;;;15.90;93.40;;;;;;5053193;28;20036;-79
2021/05/03 10:36:33;;;;;;;21.65;19.40;;;15.90;93.40;;;;;;5039222;28;20390;-82
2021/05/03 10:39:00;;;;;;;22.05;18.88;;;15.90;93.40;;;;;;5054031;28;20083;-82
2021/05/03 10:41:34;;;;;;;20.30;18.30;;;15.90;93.30;;;;;;5053456;28;20017;-81
2021/05/03 10:44:25;;;;;;;19.67;17.10;;;16.00;93.20;;;;;;5053132;28;20029;-81
2021/05/03 10:46:58;;;;;;;22.60;17.75;;;16.00;93.20;;;;;;5053069;28;20107;-79
2021/05/03 10:49:34;;;;;;;19.23;17.17;;;16.20;93.10;;;;;;5035213;28;20402;-79
2021/05/03 10:52:06;;;;;;;22.73;17.00;;;16.70;92.60;;;;;;5032368;28;20466;-79
2021/05/03 10:54:40;;;;;;;18.73;16.08;;;17.20;91.80;;;;;;5053566;28;20029;-88
2021/05/03 10:57:09;;;;;;;17.20;14.77;;;17.70;90.50;;;;;;5054882;28;20478;-85
2021/05/03 10:59:52;;;;;;;24.25;15.95;;;17.90;89.70;;;;;;5053585;28;20036;-81
2021/05/03 11:02:40;;;;;;;16.38;14.73;;;18.10;88.80;;;;;;5044074;28;20033;-84
2021/05/03 11:05:10;;;;;;;17.30;15.50;;;18.20;87.50;;;;;;5037727;28;20415;-81
2021/05/03 11:07:56;;;;;;;16.73;14.85;;;18.60;87.60;;;;;;5055982;28;20108;-85
2021/05/03 11:11:04;;;;;;;18.15;14.52;;;18.80;85.60;;;;;;5035233;28;20025;-83
2021/05/03 11:13:50;;;;;;;14.93;13.52;;;18.90;84.70;;;;;;5055808;28;20132;-85
2021/05/03 11:16:26;;;;;;;18.70;14.13;;;18.80;84.30;;;;;;5060658;28;20009;-81
2021/05/03 11:18:53;;;;;;;14.55;12.88;;;18.90;84.30;;;;;;5045804;28;20029;-84
2021/05/03 11:21:45;;;;;;;14.50;13.15;;;19.00;83.00;;;;;;5035832;28;20116;-82
2021/05/03 11:24:23;;;;;;;14.25;12.85;;;19.10;83.30;;;;;;5052742;28;20029;-85
2021/05/03 11:27:00;;;;;;;16.33;12.88;;;19.30;82.40;;;;;;5053018;28;20020;-81
2021/05/03 11:29:49;;;;;;;12.67;11.37;;;19.40;80.80;;;;;;5034417;28;20045;-82
2021/05/03 11:32:15;;;;;;;13.50;12.20;;;19.30;80.90;;;;;;5052727;28;20368;-81
2021/05/03 11:35:38;;;;;;;13.02;11.73;;;19.50;80.90;;;;;;5055722;28;20009;-83
2021/05/03 11:37:52;;;;;;;12.65;11.32;;;19.60;80.20;;;;;;5049362;28;20041;-81
2021/05/03 11:40:38;;;;;;;;;;;19.30;79.40;;;;;;5048348;28;20025;-83
2021/05/03 11:45:49;;;;;;;12.63;10.50;;;19.30;81.10;;;;;;5065232;28;20019;-82
2021/05/03 11:48:15;;;;;;;12.88;11.68;;;19.20;80.00;;;;;;5061072;28;20028;-79
2021/05/03 11:50:41;;;;;;;13.68;12.07;;;19.20;80.20;;;;;;5058857;28;20033;-81
2021/05/03 11:53:06;;;;;;;11.82;9.82;;;19.40;79.40;;;;;;5058646;28;20064;-82
2021/05/03 11:55:32;;;;;;;11.30;10.15;;;19.50;78.60;;;;;;5058842;28;20029;-81
2021/05/03 11:57:59;;;;;;;10.77;9.68;;;19.50;77.70;;;;;;5040536;28;20017;-81
2021/05/03 12:00:27;;;;;;;16.95;10.55;;;19.30;77.70;;;;;;5058439;28;20112;-82
2021/05/03 12:03:30;;;;;;;10.95;9.88;;;19.20;78.50;;;;;;5058536;28;20112;-81
2021/05/03 12:05:56;;;;;;;12.18;8.77;;;19.30;78.50;;;;;;5032672;28;20028;-80
2021/05/03 12:08:21;;;;;;;8.80;7.75;;;19.50;76.60;;;;;;5040330;28;20031;-81
2021/05/03 12:10:47;;;;;;;10.48;9.13;;;19.50;75.00;;;;;;5067557;28;20021;-81
2021/05/03 12:13:18;;;;;;;9.75;8.75;;;19.50;75.10;;;;;;5059065;28;20021;-81
2021/05/03 12:15:44;;;;;;;9.98;8.95;;;19.60;75.40;;;;;;5060294;28;20114;-84
2021/05/03 12:18:20;;;;;;;10.88;9.52;;;19.90;74.60;;;;;;5058145;28;20104;-82
2021/05/03 12:20:47;;;;;;;12.32;9.60;;;19.80;74.40;;;;;;5058831;28;20021;-84
2021/05/03 12:23:15;;;;;;;9.65;8.65;;;19.70;75.10;;;;;;5058774;28;20033;-83
2021/05/03 12:25:57;;;;;;;11.13;9.20;;;19.90;74.30;;;;;;5040633;28;20057;-81
2021/05/03 12:28:29;;;;;;;12.18;7.88;;;20.10;73.40;;;;;;5058485;28;20048;-81
2021/05/03 12:31:00;;;;;;;10.18;8.38;;;19.90;73.20;;;;;;5056467;28;20051;-83
2021/05/03 12:33:27;;;;;;;10.85;8.02;;;19.60;73.60;;;;;;5041593;28;20028;-80
2021/05/03 12:35:55;;;;;;;11.50;7.78;;;19.50;73.90;;;;;;5059415;28;20437;-84
2021/05/03 12:38:29;;;;;;;9.20;8.27;;;19.40;74.40;;;;;;5059717;28;20040;-85
2021/05/03 12:40:58;;;;;;;12.02;7.78;;;19.30;75.00;;;;;;5056055;28;20436;-81
2021/05/03 12:43:35;;;;;;;12.10;8.48;;;19.40;75.20;;;;;;5058549;28;20036;-84
2021/05/03 12:48:48;;;;;;;10.45;9.48;;;19.40;75.40;;;;;;5055104;28;20092;-80
2021/05/03 13:01:51;;;;;;;9.50;7.95;;;19.40;74.70;;;;;;5054668;28;20024;-80
2021/05/03 13:04:38;;;;;;;14.13;9.30;;;19.50;74.10;;;;;;5036659;28;20037;-78
2021/05/03 13:09:47;;;;;;;8.73;7.82;;;19.90;73.30;;;;;;5054709;28;20148;-81
2021/05/03 13:29:24;;;;;;;9.32;8.20;;;18.70;77.20;;;;;;5059732;28;20190;-85
2021/05/03 13:31:50;;;;;;;10.82;8.77;;;17.80;82.40;;;;;;5055251;28;20025;-80